Live aus Altenrhein
LIVE
LSZR 250820Z VRB04KT 9999 FEW045 18/13 Q1022 NOSIG RMK F

People´s Info Center:

Öffnungszeiten Mo-Fr, 8-18 Uhr

 

info@peoples.ch

 
Aus Österreich:

T: +43 (0)5572 203 610

 

Aus CH / LI / DE:

T: +41 (0)71 858 51 60

 

Wo kann ich in Altenrhein parkieren?

 

Der Flughafen verfügt über zwei Parkplätze,  P1 vor dem Flughafengebäude und P2, welcher ca. 100m entfernt vom Flughafenterminal liegt.

 

Ein Kassenautomat befindet sich in der Ankunftshalle und ein zweiter Kassenautomate finden Sie beim Parkplatz P1, zwischen Verwaltungsgebäude und dem Flughafengebäude. Die Kasse ist mit einer blauen Hinweistafel angeschrieben.

 

Zum Übersichtsplan der Parkplätze